createdAt,value
2018-08-27T00:00:26.984Z,99.99
2018-08-27T00:01:26.973Z,99.99
2018-08-27T00:02:26.952Z,99.99
2018-08-27T00:03:26.945Z,99.99
2018-08-27T00:04:26.913Z,99.99
2018-08-27T00:05:26.897Z,99.99
2018-08-27T00:06:26.883Z,99.99
2018-08-27T00:07:26.858Z,99.99
2018-08-27T00:08:26.839Z,99.99
2018-08-27T00:09:26.837Z,99.99
2018-08-27T00:10:26.794Z,99.99
2018-08-27T00:11:26.775Z,99.99
2018-08-27T00:12:26.753Z,99.99
2018-08-27T00:13:26.740Z,99.99
2018-08-27T00:14:26.717Z,99.99
2018-08-27T00:15:26.695Z,99.99
2018-08-27T00:16:26.679Z,99.99
2018-08-27T00:17:26.659Z,99.99
2018-08-27T00:18:26.647Z,99.99
2018-08-27T00:19:26.627Z,99.99
2018-08-27T00:20:26.609Z,99.99
2018-08-27T00:21:26.586Z,99.99
2018-08-27T00:22:26.570Z,99.99
2018-08-27T00:23:26.541Z,99.99
2018-08-27T00:24:26.538Z,99.99
2018-08-27T00:25:26.575Z,99.99
2018-08-27T00:26:26.488Z,99.99
2018-08-27T00:27:26.476Z,99.99
2018-08-27T00:28:26.450Z,99.99
2018-08-27T00:29:26.435Z,99.99
2018-08-27T00:30:26.416Z,99.99
2018-08-27T00:31:26.398Z,99.99
2018-08-27T00:32:26.383Z,99.99
2018-08-27T00:33:26.361Z,99.99
2018-08-27T00:34:26.343Z,99.99
2018-08-27T00:35:26.319Z,99.99
2018-08-27T00:36:26.303Z,99.99
2018-08-27T00:37:26.281Z,99.99
2018-08-27T00:38:26.268Z,99.99
2018-08-27T00:39:26.243Z,99.99
2018-08-27T00:40:26.231Z,99.99
2018-08-27T00:41:26.206Z,99.99
2018-08-27T00:42:26.179Z,99.71
2018-08-27T00:43:26.163Z,96.56
2018-08-27T00:44:26.147Z,96.37
2018-08-27T00:45:26.124Z,98.08
2018-08-27T00:46:26.107Z,99.90
2018-08-27T00:47:26.090Z,95.79
2018-08-27T00:48:26.074Z,99.61
2018-08-27T00:49:26.055Z,96.17
2018-08-27T00:50:26.035Z,97.99
2018-08-27T00:51:26.009Z,99.99
2018-08-27T00:52:25.999Z,98.08
2018-08-27T00:53:25.980Z,97.37
2018-08-27T00:54:25.958Z,99.66
2018-08-27T00:55:25.939Z,97.13
2018-08-27T00:56:25.919Z,99.99
2018-08-27T00:57:25.907Z,99.99
2018-08-27T00:58:25.878Z,99.99
2018-08-27T00:59:25.879Z,99.99
2018-08-27T01:00:25.844Z,99.99
2018-08-27T01:01:25.817Z,99.99
2018-08-27T01:02:25.802Z,99.99
2018-08-27T01:03:25.789Z,99.99
2018-08-27T01:04:25.767Z,99.99
2018-08-27T01:05:25.747Z,99.99
2018-08-27T01:06:25.735Z,99.99
2018-08-27T01:07:25.710Z,99.99
2018-08-27T01:08:25.688Z,99.99
2018-08-27T01:09:25.678Z,99.99
2018-08-27T01:10:25.646Z,99.99
2018-08-27T01:11:25.640Z,99.99
2018-08-27T01:12:25.614Z,99.99
2018-08-27T01:13:25.595Z,99.99
2018-08-27T01:14:25.586Z,99.99
2018-08-27T01:15:25.579Z,99.99
2018-08-27T01:16:25.538Z,99.99
2018-08-27T01:17:25.519Z,99.99
2018-08-27T01:18:25.503Z,99.99
2018-08-27T01:19:25.503Z,99.99
2018-08-27T01:20:25.458Z,99.99
2018-08-27T01:21:25.436Z,99.99
2018-08-27T01:22:25.429Z,99.99
2018-08-27T01:23:25.398Z,99.99
2018-08-27T01:24:25.385Z,99.95
2018-08-27T01:25:25.385Z,98.56
2018-08-27T01:26:25.366Z,96.08
2018-08-27T01:27:25.330Z,95.41
2018-08-27T01:28:25.310Z,95.84
2018-08-27T01:29:25.287Z,92.50
2018-08-27T01:30:25.278Z,91.55
2018-08-27T01:31:25.250Z,92.97
2018-08-27T01:32:25.240Z,91.30
2018-08-27T01:33:25.223Z,92.74
2018-08-27T01:34:25.202Z,89.39
2018-08-27T01:35:25.195Z,89.30
2018-08-27T01:36:25.182Z,90.16
2018-08-27T01:37:25.150Z,90.16
2018-08-27T01:38:25.120Z,90.45
2018-08-27T01:39:25.110Z,88.06
2018-08-27T01:40:25.091Z,89.25
2018-08-27T01:41:25.075Z,88.01
2018-08-27T01:42:25.078Z,87.05
2018-08-27T01:43:25.043Z,89.82
2018-08-27T01:44:25.021Z,91.74
2018-08-27T01:45:24.998Z,92.88
2018-08-27T01:46:25.001Z,92.11
2018-08-27T01:47:24.977Z,89.34
2018-08-27T01:48:24.950Z,90.68
2018-08-27T01:49:24.930Z,90.30
2018-08-27T01:50:24.914Z,89.73
2018-08-27T01:51:24.885Z,91.25
2018-08-27T01:52:24.876Z,86.67
2018-08-27T01:53:24.854Z,87.72
2018-08-27T01:54:24.844Z,92.88
2018-08-27T01:55:24.816Z,95.36
2018-08-27T01:56:24.806Z,88.39
2018-08-27T01:57:24.789Z,84.85
2018-08-27T01:58:24.761Z,86.33
2018-08-27T01:59:24.763Z,84.42
2018-08-27T02:00:24.729Z,81.16
2018-08-27T02:01:24.715Z,81.11
2018-08-27T02:02:24.693Z,83.79
2018-08-27T02:03:24.689Z,80.25
2018-08-27T02:04:24.668Z,78.34
2018-08-27T02:05:24.648Z,79.58
2018-08-27T02:06:24.639Z,77.86
2018-08-27T02:07:24.613Z,80.73
2018-08-27T02:08:24.597Z,80.16
2018-08-27T02:09:24.581Z,83.12
2018-08-27T02:10:24.571Z,80.63
2018-08-27T02:11:24.552Z,83.89
2018-08-27T02:12:24.540Z,80.35
2018-08-27T02:13:24.511Z,84.17
2018-08-27T02:14:24.488Z,82.45
2018-08-27T02:15:24.494Z,85.03
2018-08-27T02:16:24.475Z,87.09
2018-08-27T02:17:24.441Z,86.71
2018-08-27T02:18:24.421Z,85.66
2018-08-27T02:19:24.408Z,82.31
2018-08-27T02:20:24.399Z,82.70
2018-08-27T02:21:24.377Z,79.77
2018-08-27T02:22:24.358Z,79.58
2018-08-27T02:23:24.351Z,79.00
2018-08-27T02:24:24.330Z,81.88
2018-08-27T02:25:24.309Z,82.74
2018-08-27T02:26:24.299Z,82.17
2018-08-27T02:27:24.270Z,79.00
2018-08-27T02:28:24.254Z,79.10
2018-08-27T02:29:24.245Z,78.81
2018-08-27T02:30:24.216Z,77.09
2018-08-27T02:31:24.207Z,78.38
2018-08-27T02:32:24.240Z,77.23
2018-08-27T02:33:24.175Z,75.79
2018-08-27T02:34:24.159Z,78.38
2018-08-27T02:35:24.156Z,76.75
2018-08-27T02:36:24.130Z,77.33
2018-08-27T02:37:24.112Z,80.19
2018-08-27T02:38:24.106Z,79.05
2018-08-27T02:39:24.074Z,76.18
2018-08-27T02:40:24.065Z,76.08
2018-08-27T02:41:24.039Z,74.93
2018-08-27T02:42:24.023Z,78.47
2018-08-27T02:43:23.997Z,79.24
2018-08-27T02:44:23.991Z,78.76
2018-08-27T02:45:23.971Z,75.98
2018-08-27T02:46:23.955Z,76.46
2018-08-27T02:47:23.940Z,76.84
2018-08-27T02:48:23.920Z,77.23
2018-08-27T02:49:23.905Z,81.92
2018-08-27T02:50:23.892Z,77.51
2018-08-27T02:51:23.876Z,81.82
2018-08-27T02:52:23.861Z,80.48
2018-08-27T02:53:23.841Z,81.25
2018-08-27T02:54:23.831Z,83.40
2018-08-27T02:55:23.806Z,85.80
2018-08-27T02:56:23.796Z,82.17
2018-08-27T02:57:23.780Z,81.97
2018-08-27T02:58:23.767Z,82.54
2018-08-27T02:59:23.768Z,86.37
2018-08-27T03:00:23.745Z,87.23
2018-08-27T03:01:23.707Z,80.25
2018-08-27T03:02:23.697Z,81.49
2018-08-27T03:03:23.680Z,81.97
2018-08-27T03:04:23.666Z,81.78
2018-08-27T03:05:23.656Z,79.20
2018-08-27T03:06:23.634Z,81.68
2018-08-27T03:07:23.618Z,79.87
2018-08-27T03:08:23.595Z,76.08
2018-08-27T03:09:23.583Z,75.70
2018-08-27T03:10:23.566Z,77.23
2018-08-27T03:11:23.544Z,76.65
2018-08-27T03:12:23.534Z,75.26
2018-08-27T03:13:23.518Z,74.97
2018-08-27T03:14:23.505Z,75.07
2018-08-27T03:15:23.490Z,75.73
2018-08-27T03:16:23.470Z,74.30
2018-08-27T03:17:23.447Z,75.16
2018-08-27T03:18:23.472Z,74.11
2018-08-27T03:19:23.415Z,74.01
2018-08-27T03:20:23.404Z,74.11
2018-08-27T03:21:23.390Z,74.01
2018-08-27T03:22:23.371Z,75.07
2018-08-27T03:23:23.358Z,75.73
2018-08-27T03:24:23.329Z,75.35
2018-08-27T03:25:23.330Z,76.31
2018-08-27T03:26:23.303Z,76.40
2018-08-27T03:27:23.298Z,76.12
2018-08-27T03:28:23.270Z,77.80
2018-08-27T03:29:23.270Z,75.64
2018-08-27T03:30:23.244Z,76.37
2018-08-27T03:31:23.225Z,79.18
2018-08-27T03:32:23.207Z,78.95
2018-08-27T03:33:23.187Z,77.23
2018-08-27T03:34:23.181Z,80.00
2018-08-27T03:35:23.155Z,78.47
2018-08-27T03:36:23.143Z,76.56
2018-08-27T03:37:23.132Z,77.80
2018-08-27T03:38:23.108Z,80.48
2018-08-27T03:39:23.094Z,76.31
2018-08-27T03:40:23.076Z,76.89
2018-08-27T03:41:23.064Z,76.50
2018-08-27T03:42:23.050Z,77.17
2018-08-27T03:43:23.035Z,79.75
2018-08-27T03:44:23.015Z,76.89
2018-08-27T03:45:23.008Z,79.08
2018-08-27T03:46:22.987Z,76.21
2018-08-27T03:47:22.976Z,76.31
2018-08-27T03:48:22.987Z,75.54
2018-08-27T03:49:22.935Z,74.97
2018-08-27T03:50:22.922Z,74.58
2018-08-27T03:51:22.901Z,72.77
2018-08-27T03:52:22.886Z,72.52
2018-08-27T03:53:22.870Z,73.95
2018-08-27T03:54:22.867Z,72.80
2018-08-27T03:55:22.838Z,74.52
2018-08-27T03:56:22.825Z,72.42
2018-08-27T03:57:22.805Z,72.03
2018-08-27T03:58:22.793Z,73.57
2018-08-27T03:59:22.780Z,72.42
2018-08-27T04:00:22.760Z,71.56
2018-08-27T04:01:22.747Z,71.08
2018-08-27T04:02:22.729Z,71.66
2018-08-27T04:03:22.711Z,71.56
2018-08-27T04:04:22.707Z,71.27
2018-08-27T04:05:22.775Z,71.37
2018-08-27T04:06:22.660Z,71.75
2018-08-27T04:07:22.647Z,72.52
2018-08-27T04:08:22.635Z,73.28
2018-08-27T04:09:22.622Z,72.52
2018-08-27T04:10:22.603Z,72.42
2018-08-27T04:11:22.580Z,73.95
2018-08-27T04:12:22.579Z,72.32
2018-08-27T04:13:22.554Z,72.32
2018-08-27T04:14:22.552Z,71.46
2018-08-27T04:15:22.522Z,71.08
2018-08-27T04:16:22.508Z,71.84
2018-08-27T04:17:22.496Z,72.71
2018-08-27T04:18:22.479Z,73.19
2018-08-27T04:19:22.457Z,72.32
2018-08-27T04:20:22.444Z,74.52
2018-08-27T04:21:22.432Z,75.01
2018-08-27T04:22:22.417Z,74.05
2018-08-27T04:23:22.400Z,72.42
2018-08-27T04:24:22.380Z,73.57
2018-08-27T04:25:22.368Z,73.09
2018-08-27T04:26:22.358Z,73.38
2018-08-27T04:27:22.329Z,73.09
2018-08-27T04:28:22.322Z,72.42
2018-08-27T04:29:22.300Z,73.86
2018-08-27T04:30:22.287Z,76.54
2018-08-27T04:31:22.265Z,72.52
2018-08-27T04:32:22.252Z,74.82
2018-08-27T04:33:22.254Z,78.27
2018-08-27T04:34:22.223Z,75.68
2018-08-27T04:35:22.214Z,78.55
2018-08-27T04:36:22.202Z,82.19
2018-08-27T04:37:22.185Z,80.52
2018-08-27T04:38:22.156Z,79.75
2018-08-27T04:39:22.169Z,80.52
2018-08-27T04:40:22.139Z,79.37
2018-08-27T04:41:22.117Z,83.59
2018-08-27T04:42:22.182Z,82.15
2018-08-27T04:43:22.082Z,82.92
2018-08-27T04:44:22.066Z,83.49
2018-08-27T04:45:22.047Z,84.41
2018-08-27T04:46:22.032Z,84.41
2018-08-27T04:47:22.028Z,83.26
2018-08-27T04:48:22.011Z,84.50
2018-08-27T04:49:21.992Z,78.28
2018-08-27T04:50:21.980Z,81.25
2018-08-27T04:51:21.961Z,79.33
2018-08-27T04:52:21.952Z,83.11
2018-08-27T04:53:21.936Z,85.08
2018-08-27T04:54:21.912Z,81.25
2018-08-27T04:55:21.894Z,79.52
2018-08-27T04:56:21.878Z,79.28
2018-08-27T04:57:21.868Z,78.70
2018-08-27T04:58:21.852Z,77.84
2018-08-27T04:59:21.848Z,78.13
2018-08-27T05:00:21.813Z,78.42
2018-08-27T05:01:21.817Z,78.42
2018-08-27T05:02:21.791Z,80.90
2018-08-27T05:03:21.772Z,82.06
2018-08-27T05:04:21.769Z,78.70
2018-08-27T05:05:21.737Z,80.71
2018-08-27T05:06:21.720Z,82.15
2018-08-27T05:07:21.707Z,81.38
2018-08-27T05:08:21.687Z,79.47
2018-08-27T05:09:21.678Z,79.66
2018-08-27T05:10:21.662Z,78.80
2018-08-27T05:11:21.649Z,79.28
2018-08-27T05:12:21.624Z,78.70
2018-08-27T05:13:21.616Z,78.70
2018-08-27T05:14:21.601Z,79.47
2018-08-27T05:15:21.592Z,78.61
2018-08-27T05:16:21.569Z,78.99
2018-08-27T05:17:21.576Z,79.18
2018-08-27T05:18:21.534Z,78.99
2018-08-27T05:19:21.516Z,80.52
2018-08-27T05:20:21.507Z,80.62
2018-08-27T05:21:21.487Z,80.66
2018-08-27T05:22:21.481Z,78.17
2018-08-27T05:23:21.493Z,76.73
2018-08-27T05:24:21.442Z,76.06
2018-08-27T05:25:21.433Z,76.35
2018-08-27T05:26:21.413Z,76.54
2018-08-27T05:27:21.394Z,75.68
2018-08-27T05:28:21.384Z,75.96
2018-08-27T05:29:21.372Z,73.32
2018-08-27T05:30:21.349Z,72.27
2018-08-27T05:31:21.411Z,73.32
2018-08-27T05:32:21.321Z,73.74
2018-08-27T05:33:21.307Z,71.25
2018-08-27T05:34:21.295Z,70.00
2018-08-27T05:35:21.275Z,70.51
2018-08-27T05:36:21.262Z,69.36
2018-08-27T05:37:21.244Z,70.70
2018-08-27T05:38:21.235Z,69.56
2018-08-27T05:39:21.212Z,69.07
2018-08-27T05:40:21.225Z,71.28
2018-08-27T05:41:21.192Z,70.42
2018-08-27T05:42:21.176Z,68.30
2018-08-27T05:43:21.180Z,70.36
2018-08-27T05:44:21.162Z,68.98
2018-08-27T05:45:21.125Z,71.03
2018-08-27T05:46:21.112Z,68.15
2018-08-27T05:47:21.100Z,69.97
2018-08-27T05:48:21.087Z,68.15
2018-08-27T05:49:21.091Z,67.76
2018-08-27T05:50:21.053Z,67.19
2018-08-27T05:51:21.066Z,66.23
2018-08-27T05:52:21.083Z,66.52
2018-08-27T05:53:21.013Z,68.47
2018-08-27T05:54:21.005Z,70.10
2018-08-27T05:55:21.000Z,71.06
2018-08-27T05:56:20.991Z,67.22
2018-08-27T05:57:20.969Z,67.51
2018-08-27T05:58:20.943Z,69.34
2018-08-27T05:59:20.930Z,67.32
2018-08-27T06:00:20.919Z,67.45
2018-08-27T06:01:20.902Z,67.13
2018-08-27T06:02:20.890Z,67.51
2018-08-27T06:03:20.874Z,65.69
2018-08-27T06:04:20.871Z,66.46
2018-08-27T06:05:20.845Z,67.70
2018-08-27T06:06:20.836Z,68.47
2018-08-27T06:07:20.819Z,69.34
2018-08-27T06:08:20.800Z,68.18
2018-08-27T06:09:20.801Z,69.34
2018-08-27T06:10:20.784Z,69.40
2018-08-27T06:11:20.766Z,69.91
2018-08-27T06:12:20.755Z,70.10
2018-08-27T06:13:20.743Z,70.39
2018-08-27T06:14:20.723Z,68.28
2018-08-27T06:15:20.715Z,68.28
2018-08-27T06:16:20.809Z,68.76
2018-08-27T06:17:20.691Z,68.82
2018-08-27T06:18:20.673Z,69.40
2018-08-27T06:19:20.686Z,67.76
2018-08-27T06:20:20.644Z,69.87
2018-08-27T06:21:20.629Z,69.24
2018-08-27T06:22:20.675Z,69.62
2018-08-27T06:23:20.606Z,69.14
2018-08-27T06:24:20.599Z,69.30
2018-08-27T06:25:20.574Z,69.78
2018-08-27T06:26:20.575Z,71.41
2018-08-27T06:27:20.548Z,70.87
2018-08-27T06:28:20.542Z,71.31
2018-08-27T06:29:20.536Z,72.08
2018-08-27T06:30:20.529Z,71.61
2018-08-27T06:31:20.499Z,71.61
2018-08-27T06:32:20.517Z,71.70
2018-08-27T06:33:20.477Z,71.70
2018-08-27T06:34:20.461Z,72.75
2018-08-27T06:35:20.442Z,73.43
2018-08-27T06:36:20.452Z,73.04
2018-08-27T06:37:20.438Z,74.87
2018-08-27T06:38:20.397Z,73.81
2018-08-27T06:39:20.397Z,74.48
2018-08-27T06:40:20.378Z,75.82
2018-08-27T06:41:20.360Z,76.79
2018-08-27T06:42:20.365Z,75.06
2018-08-27T06:43:20.337Z,76.40
2018-08-27T06:44:20.324Z,76.40
2018-08-27T06:45:20.309Z,75.82
2018-08-27T06:46:20.299Z,74.96
2018-08-27T06:47:20.286Z,75.63
2018-08-27T06:48:20.271Z,77.17
2018-08-27T06:49:20.254Z,76.69
2018-08-27T06:50:20.233Z,75.06
2018-08-27T06:51:20.226Z,77.17
2018-08-27T06:52:20.213Z,78.61
2018-08-27T06:53:20.190Z,79.38
2018-08-27T06:54:20.187Z,77.65
2018-08-27T06:55:20.165Z,76.79
2018-08-27T06:56:20.150Z,78.13
2018-08-27T06:57:20.143Z,78.03
2018-08-27T06:58:20.130Z,77.75
2018-08-27T06:59:20.107Z,78.03
2018-08-27T07:00:20.097Z,78.09
2018-08-27T07:01:20.081Z,78.42
2018-08-27T07:02:20.121Z,78.57
2018-08-27T07:03:20.062Z,78.61
2018-08-27T07:04:20.040Z,78.67
2018-08-27T07:05:20.035Z,80.30
2018-08-27T07:06:20.027Z,81.07
2018-08-27T07:07:20.001Z,81.64
2018-08-27T07:08:20.051Z,82.41
2018-08-27T07:09:19.972Z,83.37
2018-08-27T07:10:19.969Z,84.52
2018-08-27T07:11:19.946Z,84.61
2018-08-27T07:12:19.931Z,83.56
2018-08-27T07:13:19.921Z,83.91
2018-08-27T07:14:19.902Z,85.34
2018-08-27T07:15:19.891Z,85.63
2018-08-27T07:16:19.883Z,86.21
2018-08-27T07:17:19.864Z,86.97
2018-08-27T07:18:19.847Z,87.55
2018-08-27T07:19:19.838Z,86.58
2018-08-27T07:20:19.871Z,88.02
2018-08-27T07:21:19.806Z,88.84
2018-08-27T07:22:19.793Z,88.98
2018-08-27T07:23:19.780Z,88.94
2018-08-27T07:24:19.764Z,90.19
2018-08-27T07:25:19.759Z,91.34
2018-08-27T07:26:19.751Z,91.63
2018-08-27T07:27:19.729Z,90.76
2018-08-27T07:28:19.713Z,91.63
2018-08-27T07:29:19.700Z,91.72
2018-08-27T07:30:19.716Z,92.10
2018-08-27T07:31:19.658Z,93.44
2018-08-27T07:32:19.646Z,92.87
2018-08-27T07:33:19.623Z,93.63
2018-08-27T07:34:19.618Z,93.93
2018-08-27T07:35:19.594Z,94.45
2018-08-27T07:36:19.677Z,94.02
2018-08-27T07:37:19.578Z,94.40
2018-08-27T07:38:19.567Z,94.74
2018-08-27T07:39:19.543Z,94.45
2018-08-27T07:40:19.527Z,94.69
2018-08-27T07:41:19.511Z,94.93
2018-08-27T07:42:19.498Z,93.88
2018-08-27T07:43:19.492Z,93.59
2018-08-27T07:44:19.466Z,94.35
2018-08-27T07:45:19.456Z,93.01
2018-08-27T07:46:19.437Z,92.91
2018-08-27T07:47:19.430Z,91.57
2018-08-27T07:48:19.408Z,92.19
2018-08-27T07:49:19.402Z,91.81
2018-08-27T07:50:19.386Z,92.44
2018-08-27T07:51:19.414Z,91.77
2018-08-27T07:52:19.357Z,92.05
2018-08-27T07:53:19.344Z,93.30
2018-08-27T07:54:19.331Z,93.01
2018-08-27T07:55:19.316Z,92.72
2018-08-27T07:56:19.292Z,92.44
2018-08-27T07:57:19.291Z,92.54
2018-08-27T07:58:19.327Z,93.30
2018-08-27T07:59:19.262Z,92.05
2018-08-27T08:00:19.246Z,92.24
2018-08-27T08:01:19.237Z,92.39
2018-08-27T08:02:19.214Z,91.42
2018-08-27T08:03:19.201Z,90.75
2018-08-27T08:04:19.189Z,91.72
2018-08-27T08:05:19.197Z,91.52
2018-08-27T08:06:19.160Z,90.95
2018-08-27T08:07:19.167Z,89.94
2018-08-27T08:08:19.141Z,90.99
2018-08-27T08:09:19.126Z,91.05
2018-08-27T08:10:19.112Z,90.90
2018-08-27T08:11:19.110Z,90.90
2018-08-27T08:12:19.089Z,91.38
2018-08-27T08:13:19.071Z,90.90
2018-08-27T08:14:19.055Z,91.96
2018-08-27T08:15:19.049Z,92.05
2018-08-27T08:16:19.036Z,92.43
2018-08-27T08:17:19.017Z,91.72
2018-08-27T08:18:19.001Z,92.48
2018-08-27T08:19:18.998Z,93.06
2018-08-27T08:20:18.982Z,93.54
2018-08-27T08:21:18.968Z,93.82
2018-08-27T08:22:18.957Z,92.96
2018-08-27T08:23:18.943Z,93.63
2018-08-27T08:24:18.927Z,93.92
2018-08-27T08:25:18.912Z,94.69
2018-08-27T08:26:18.898Z,94.59
2018-08-27T08:27:18.890Z,93.82
2018-08-27T08:28:18.870Z,93.06
2018-08-27T08:29:18.864Z,93.73
2018-08-27T08:30:18.845Z,93.54
2018-08-27T08:31:18.832Z,93.92
2018-08-27T08:32:18.825Z,94.12
2018-08-27T08:33:18.893Z,93.63
2018-08-27T08:34:18.801Z,93.44
2018-08-27T08:35:18.784Z,93.44
2018-08-27T08:36:18.771Z,93.15
2018-08-27T08:37:18.758Z,93.54
2018-08-27T08:38:18.745Z,94.12
2018-08-27T08:39:18.723Z,92.05
2018-08-27T08:40:18.713Z,92.10
2018-08-27T08:41:18.698Z,92.00
2018-08-27T08:42:18.688Z,92.10
2018-08-27T08:43:18.685Z,92.00
2018-08-27T08:44:18.666Z,92.05
2018-08-27T08:45:18.643Z,92.19
2018-08-27T08:46:18.631Z,91.38
2018-08-27T08:47:18.624Z,90.70
2018-08-27T08:48:18.605Z,90.99
2018-08-27T08:49:18.598Z,90.61
2018-08-27T08:50:18.583Z,91.28
2018-08-27T08:51:18.570Z,89.84
2018-08-27T08:52:18.560Z,89.65
2018-08-27T08:53:18.577Z,89.40
2018-08-27T08:54:18.531Z,89.75
2018-08-27T08:55:18.520Z,89.79
2018-08-27T08:56:18.507Z,89.75
2018-08-27T08:57:18.494Z,89.79
2018-08-27T08:58:18.479Z,88.93
2018-08-27T08:59:18.469Z,88.93
2018-08-27T09:00:18.467Z,88.83
2018-08-27T09:01:18.467Z,87.96
2018-08-27T09:02:18.427Z,88.16
2018-08-27T09:03:18.415Z,88.25
2018-08-27T09:04:18.402Z,89.12
2018-08-27T09:05:18.387Z,89.02
2018-08-27T09:06:18.380Z,87.58
2018-08-27T09:07:18.367Z,87.58
2018-08-27T09:08:18.511Z,89.02
2018-08-27T09:09:18.335Z,87.68
2018-08-27T09:10:18.329Z,86.62
2018-08-27T09:11:18.310Z,86.33
2018-08-27T09:12:18.300Z,86.81
2018-08-27T09:13:18.284Z,87.29
2018-08-27T09:14:18.271Z,87.96
2018-08-27T09:15:18.265Z,88.54
2018-08-27T09:16:18.258Z,87.58
2018-08-27T09:17:18.311Z,85.95
2018-08-27T09:18:18.226Z,87.39
2018-08-27T09:19:18.210Z,87.49
2018-08-27T09:20:18.198Z,87.72
2018-08-27T09:21:18.181Z,86.52
2018-08-27T09:22:18.172Z,86.91
2018-08-27T09:23:18.156Z,88.06
2018-08-27T09:24:18.150Z,87.96
2018-08-27T09:25:18.137Z,89.40
2018-08-27T09:26:18.124Z,89.69
2018-08-27T09:27:18.104Z,89.89
2018-08-27T09:28:18.092Z,89.98
2018-08-27T09:29:18.084Z,90.61
2018-08-27T09:30:18.069Z,89.75
2018-08-27T09:31:18.062Z,90.32
2018-08-27T09:32:18.041Z,91.19
2018-08-27T09:33:18.125Z,92.19
2018-08-27T09:34:18.019Z,90.95
2018-08-27T09:35:18.001Z,91.91
2018-08-27T09:36:17.993Z,91.33
2018-08-27T09:37:17.979Z,92.00
2018-08-27T09:38:17.966Z,92.29
2018-08-27T09:39:17.948Z,92.39
2018-08-27T09:40:17.973Z,91.72
2018-08-27T09:41:17.925Z,93.82
2018-08-27T09:42:17.910Z,92.39
2018-08-27T09:43:17.900Z,92.14
2018-08-27T09:44:17.881Z,91.47
2018-08-27T09:45:17.869Z,91.66
2018-08-27T09:46:17.864Z,92.82
2018-08-27T09:47:17.843Z,90.66
2018-08-27T09:48:17.830Z,90.75
2018-08-27T09:49:17.820Z,90.66
2018-08-27T09:50:17.801Z,90.60
2018-08-27T09:51:17.791Z,88.78
2018-08-27T09:52:17.791Z,87.72
2018-08-27T09:53:17.865Z,89.07
2018-08-27T09:54:17.751Z,86.66
2018-08-27T09:55:17.747Z,88.59
2018-08-27T09:56:17.724Z,87.72
2018-08-27T09:57:17.710Z,87.49
2018-08-27T09:58:17.701Z,87.96
2018-08-27T09:59:17.689Z,88.54
2018-08-27T10:00:17.682Z,87.68
2018-08-27T10:01:17.662Z,87.19
2018-08-27T10:02:17.656Z,87.77
2018-08-27T10:03:17.643Z,88.45
2018-08-27T10:04:17.625Z,89.40
2018-08-27T10:05:17.618Z,88.16
2018-08-27T10:06:17.609Z,87.92
2018-08-27T10:07:17.592Z,87.92
2018-08-27T10:08:17.577Z,87.34
2018-08-27T10:09:17.563Z,86.62
2018-08-27T10:10:17.557Z,87.24
2018-08-27T10:11:17.538Z,87.43
2018-08-27T10:12:17.535Z,88.01
2018-08-27T10:13:17.514Z,86.80
2018-08-27T10:14:17.503Z,86.80
2018-08-27T10:15:17.489Z,86.80
2018-08-27T10:16:17.480Z,86.36
2018-08-27T10:17:17.473Z,85.88
2018-08-27T10:18:17.460Z,85.36
2018-08-27T10:19:17.438Z,86.04
2018-08-27T10:20:17.431Z,86.22
2018-08-27T10:21:17.428Z,86.99
2018-08-27T10:22:17.480Z,87.29
2018-08-27T10:23:17.400Z,87.29
2018-08-27T10:24:17.391Z,89.21
2018-08-27T10:25:17.381Z,87.38
2018-08-27T10:26:17.396Z,87.38
2018-08-27T10:27:17.358Z,88.57
2018-08-27T10:28:17.348Z,86.85
2018-08-27T10:29:17.340Z,86.75
2018-08-27T10:30:17.331Z,86.75
2018-08-27T10:31:17.316Z,86.99
2018-08-27T10:32:17.300Z,87.09
2018-08-27T10:33:17.314Z,88.34
2018-08-27T10:34:17.280Z,88.63
2018-08-27T10:35:17.268Z,88.39
2018-08-27T10:36:17.275Z,87.81
2018-08-27T10:37:17.388Z,87.23
2018-08-27T10:38:17.252Z,88.57
2018-08-27T10:39:17.226Z,88.10
2018-08-27T10:40:17.224Z,86.65
2018-08-27T10:41:17.213Z,88.00
2018-08-27T10:42:17.194Z,89.06
2018-08-27T10:43:17.184Z,87.42
2018-08-27T10:44:17.175Z,87.90
2018-08-27T10:45:17.172Z,87.23
2018-08-27T10:46:17.159Z,88.57
2018-08-27T10:47:17.153Z,88.39
2018-08-27T10:48:17.138Z,87.76
2018-08-27T10:49:17.134Z,87.66
2018-08-27T10:50:17.228Z,87.27
2018-08-27T10:51:17.114Z,88.43
2018-08-27T10:52:17.113Z,88.81
2018-08-27T10:53:17.098Z,87.37
2018-08-27T10:54:17.079Z,89.29
2018-08-27T10:55:17.072Z,88.53
2018-08-27T10:56:17.066Z,87.18
2018-08-27T10:57:17.054Z,88.53
2018-08-27T10:58:17.054Z,88.53
2018-08-27T10:59:17.035Z,88.14
2018-08-27T11:00:17.025Z,88.71
2018-08-27T11:01:17.015Z,88.04
2018-08-27T11:02:17.012Z,88.48
2018-08-27T11:03:17.003Z,90.12
2018-08-27T11:04:16.993Z,90.79
2018-08-27T11:05:16.977Z,91.85
2018-08-27T11:06:16.969Z,91.27
2018-08-27T11:07:16.958Z,90.98
2018-08-27T11:08:16.952Z,91.36
2018-08-27T11:09:16.945Z,91.27
2018-08-27T11:10:16.933Z,90.69
2018-08-27T11:11:16.921Z,92.43
2018-08-27T11:12:16.914Z,91.80
2018-08-27T11:13:16.914Z,90.73
2018-08-27T11:14:16.889Z,91.03
2018-08-27T11:15:16.880Z,91.03
2018-08-27T11:16:16.878Z,91.99
2018-08-27T11:17:16.867Z,90.83
2018-08-27T11:18:16.853Z,90.89
2018-08-27T11:19:16.841Z,91.94
2018-08-27T11:20:16.951Z,92.61
2018-08-27T11:21:16.819Z,93.44
2018-08-27T11:22:16.812Z,93.68
2018-08-27T11:23:16.809Z,92.52
2018-08-27T11:24:16.796Z,93.53
2018-08-27T11:25:16.780Z,94.11
2018-08-27T11:26:16.836Z,95.17
2018-08-27T11:27:16.763Z,94.40
2018-08-27T11:28:16.750Z,95.40
2018-08-27T11:29:16.742Z,96.42
2018-08-27T11:30:16.733Z,95.75
2018-08-27T11:31:16.724Z,96.32
2018-08-27T11:32:16.713Z,96.42
2018-08-27T11:33:16.702Z,96.03
2018-08-27T11:34:16.692Z,95.84
2018-08-27T11:35:16.679Z,96.70
2018-08-27T11:36:16.669Z,97.14
2018-08-27T11:37:16.650Z,97.04
2018-08-27T11:38:16.641Z,97.91
2018-08-27T11:39:16.640Z,99.73
2018-08-27T11:40:16.625Z,98.00
2018-08-27T11:41:16.611Z,98.19
2018-08-27T11:42:16.596Z,98.96
2018-08-27T11:43:16.608Z,99.06
2018-08-27T11:44:16.570Z,98.34
2018-08-27T11:45:16.572Z,98.44
2018-08-27T11:46:16.554Z,99.68
2018-08-27T11:47:16.549Z,97.96
2018-08-27T11:48:16.543Z,98.44
2018-08-27T11:49:16.520Z,98.63
2018-08-27T11:50:16.537Z,99.35
2018-08-27T11:51:16.493Z,99.92
2018-08-27T11:52:16.488Z,99.99
2018-08-27T11:53:16.472Z,98.82
2018-08-27T11:54:16.465Z,98.24
2018-08-27T11:55:16.450Z,99.88
2018-08-27T11:56:16.440Z,98.44
2018-08-27T11:57:16.430Z,98.14
2018-08-27T11:58:16.419Z,97.76
2018-08-27T11:59:16.420Z,98.63
2018-08-27T12:00:16.398Z,98.05
2018-08-27T12:01:16.473Z,99.54
2018-08-27T12:02:16.406Z,97.14
2018-08-27T12:03:16.369Z,97.28
2018-08-27T12:04:16.357Z,98.24
2018-08-27T12:05:16.350Z,99.21
2018-08-27T12:06:16.331Z,99.98
2018-08-27T12:07:16.321Z,99.30
2018-08-27T12:08:16.316Z,99.98
2018-08-27T12:09:16.302Z,99.99
2018-08-27T12:10:16.290Z,99.99
2018-08-27T12:11:16.283Z,99.99
2018-08-27T12:12:16.263Z,99.99
2018-08-27T12:13:16.260Z,99.99
2018-08-27T12:14:16.245Z,99.99
2018-08-27T12:15:16.232Z,99.99
2018-08-27T12:16:16.226Z,99.99
2018-08-27T12:17:16.220Z,99.99
2018-08-27T12:18:16.206Z,99.99
2018-08-27T12:19:16.194Z,99.99
2018-08-27T12:20:16.187Z,99.99
2018-08-27T12:21:16.165Z,99.99
2018-08-27T12:22:16.152Z,99.99
2018-08-27T12:23:16.139Z,99.99
2018-08-27T12:24:16.126Z,99.99
2018-08-27T12:25:16.115Z,99.99
2018-08-27T12:26:16.105Z,99.99
2018-08-27T12:27:16.090Z,99.99
2018-08-27T12:28:16.073Z,99.99
2018-08-27T12:29:16.087Z,99.99
2018-08-27T12:30:16.056Z,99.99
2018-08-27T12:31:16.039Z,99.99
2018-08-27T12:32:16.034Z,99.99
2018-08-27T12:33:16.019Z,99.99
2018-08-27T12:34:16.007Z,99.99
2018-08-27T12:35:15.992Z,99.99
2018-08-27T12:36:15.979Z,99.99
2018-08-27T12:37:15.969Z,99.99
2018-08-27T12:38:15.948Z,99.99
2018-08-27T12:39:15.939Z,99.99
2018-08-27T12:40:15.923Z,99.99
2018-08-27T12:41:16.090Z,99.99
2018-08-27T12:42:15.897Z,99.99
2018-08-27T12:43:15.889Z,99.99
2018-08-27T12:44:15.879Z,99.99
2018-08-27T12:45:15.863Z,99.99
2018-08-27T12:46:15.847Z,99.99
2018-08-27T12:47:15.839Z,99.99
2018-08-27T12:48:15.821Z,99.99
2018-08-27T12:49:15.814Z,99.99
2018-08-27T12:50:15.805Z,99.99
2018-08-27T12:51:15.829Z,99.99
2018-08-27T12:52:15.773Z,99.99